Wetterdaten: Woche 09.07.18 - 15.07.18 (KW28)
Datum Zeit Temp. I. Temp. A. Boden 5 cm Feuchte A. Sonne Luftdruck Regen Wind Sonnenschein Zeit Regen
09.07.2018 00:00 23,7 C 16,4 C 20,1 C 74 % 0 % 1022 hPa 0,0 l/m 0,0 km/h (0 Bft) 0,00 h 0,00 h
09.07.2018 01:00 23,2 C 15,8 C 19,4 C 74 % 0 % 1022 hPa 0,0 l/m 0,0 km/h (0 Bft) 0,00 h 0,00 h
09.07.2018 02:00 22,9 C 15,1 C 18,8 C 77 % 0 % 1022 hPa 0,0 l/m 0,0 km/h (0 Bft) 0,00 h 0,00 h
09.07.2018 03:00 22,7 C 14,6 C 18,2 C 79 % 0 % 1022 hPa 0,0 l/m 0,0 km/h (0 Bft) 0,00 h 0,00 h
09.07.2018 04:00 22,5 C 14,7 C 17,9 C 78 % 0 % 1021 hPa 0,0 l/m 0,2 km/h (0 Bft) 0,00 h 0,00 h
09.07.2018 05:00 22,4 C 14,7 C 17,6 C 77 % 3 % 1022 hPa 0,0 l/m 0,5 km/h (0 Bft) 0,50 h 0,00 h
09.07.2018 06:00 22,3 C 14,7 C 17,5 C 77 % 14 % 1022 hPa 0,0 l/m 0,1 km/h (0 Bft) 1,00 h 0,00 h
09.07.2018 07:00 22,0 C 16,5 C 18,5 C 71 % 35 % 1022 hPa 0,0 l/m 0,6 km/h (0 Bft) 1,00 h 0,00 h
09.07.2018 08:00 22,2 C 19,2 C 19,3 C 63 % 52 % 1022 hPa 0,0 l/m 1,5 km/h (1 Bft) 1,00 h 0,00 h
09.07.2018 09:00 22,6 C 21,9 C 20,2 C 56 % 47 % 1021 hPa 0,0 l/m 2,2 km/h (1 Bft) 0,55 h 0,00 h
09.07.2018 10:00 22,8 C 23,4 C 21,2 C 50 % 62 % 1021 hPa 0,0 l/m 4,3 km/h (1 Bft) 1,00 h 0,00 h
09.07.2018 11:00 22,9 C 24,2 C 22,3 C 45 % 66 % 1021 hPa 0,0 l/m 5,0 km/h (1 Bft) 1,00 h 0,00 h
09.07.2018 12:00 23,0 C 24,0 C 23,1 C 45 % 71 % 1021 hPa 0,0 l/m 4,1 km/h (1 Bft) 1,00 h 0,00 h
09.07.2018 13:00 23,1 C 24,1 C 23,6 C 46 % 66 % 1020 hPa 0,0 l/m 6,3 km/h (2 Bft) 1,00 h 0,00 h
09.07.2018 14:00 23,2 C 25,1 C 24,1 C 43 % 77 % 1020 hPa 0,0 l/m 6,6 km/h (2 Bft) 1,00 h 0,00 h
09.07.2018 15:00 23,2 C 25,4 C 24,6 C 40 % 63 % 1019 hPa 0,0 l/m 5,9 km/h (2 Bft) 0,75 h 0,00 h
09.07.2018 16:00 23,3 C 25,0 C 24,6 C 45 % 59 % 1019 hPa 0,0 l/m 3,9 km/h (1 Bft) 0,75 h 0,00 h
09.07.2018 17:00 23,5 C 24,7 C 24,6 C 48 % 32 % 1019 hPa 0,0 l/m 4,4 km/h (1 Bft) 0,20 h 0,00 h
09.07.2018 18:00 23,6 C 22,9 C 24,1 C 57 % 22 % 1019 hPa 0,0 l/m 0,9 km/h (0 Bft) 0,00 h 0,00 h
09.07.2018 19:00 23,5 C 23,0 C 23,7 C 56 % 19 % 1019 hPa 0,0 l/m 0,2 km/h (0 Bft) 0,50 h 0,00 h
09.07.2018 20:00 23,5 C 21,9 C 23,3 C 61 % 18 % 1019 hPa 0,0 l/m 1,6 km/h (1 Bft) 0,75 h 0,00 h
09.07.2018 21:00 23,6 C 20,6 C 22,7 C 67 % 0 % 1019 hPa 0,0 l/m 0,3 km/h (0 Bft) 0,00 h 0,00 h
09.07.2018 22:00 23,6 C 19,9 C 22,1 C 72 % 0 % 1019 hPa 0,0 l/m 0,0 km/h (0 Bft) 0,00 h 0,00 h
09.07.2018 23:00 23,5 C 19,4 C 21,7 C 74 % 0 % 1019 hPa 0,0 l/m 0,0 km/h (0 Bft) 0,00 h 0,00 h
10.07.2018 00:00 23,4 C 18,7 C 21,2 C 76 % 0 % 1018 hPa 0,0 l/m 0,0 km/h (0 Bft) 0,00 h 0,00 h
10.07.2018 01:00 23,2 C 17,6 C 20,6 C 79 % 0 % 1018 hPa 0,0 l/m 0,1 km/h (0 Bft) 0,00 h 0,00 h
10.07.2018 02:00 23,2 C 16,5 C 20,0 C 81 % 0 % 1017 hPa 0,0 l/m 0,6 km/h (0 Bft) 0,00 h 0,00 h
10.07.2018 03:00 23,0 C 15,9 C 19,4 C 81 % 0 % 1017 hPa 0,0 l/m 0,1 km/h (0 Bft) 0,00 h 0,00 h
10.07.2018 04:00 22,9 C 15,6 C 18,9 C 81 % 0 % 1017 hPa 0,0 l/m 0,0 km/h (0 Bft) 0,00 h 0,00 h
10.07.2018 05:00 22,8 C 15,9 C 18,7 C 81 % 1 % 1017 hPa 0,0 l/m 0,0 km/h (0 Bft) 0,00 h 0,00 h
10.07.2018 06:00 22,8 C 16,2 C 18,6 C 80 % 11 % 1016 hPa 0,0 l/m 0,2 km/h (0 Bft) 0,35 h 0,00 h
10.07.2018 07:00 22,7 C 16,9 C 18,8 C 80 % 16 % 1016 hPa 0,0 l/m 0,8 km/h (0 Bft) 0,00 h 0,00 h
10.07.2018 08:00 22,4 C 17,5 C 19,0 C 78 % 21 % 1017 hPa 0,0 l/m 0,6 km/h (0 Bft) 0,00 h 0,00 h
10.07.2018 09:00 22,6 C 18,2 C 19,3 C 74 % 28 % 1017 hPa 0,0 l/m 2,9 km/h (1 Bft) 0,00 h 0,00 h
10.07.2018 10:00 22,8 C 18,2 C 19,5 C 76 % 17 % 1017 hPa 0,0 l/m 2,5 km/h (1 Bft) 0,00 h 0,00 h
10.07.2018 11:00 22,8 C 16,4 C 19,1 C 80 % 14 % 1017 hPa 4,1 l/m 1,2 km/h (1 Bft) 0,00 h 0,45 h
10.07.2018 12:00 22,8 C 15,5 C 18,2 C 77 % 19 % 1017 hPa 0,0 l/m 0,4 km/h (0 Bft) 0,00 h 0,00 h
10.07.2018 13:00 22,9 C 18,4 C 18,0 C 76 % 27 % 1017 hPa 0,0 l/m 1,9 km/h (1 Bft) 0,00 h 0,00 h
10.07.2018 14:00 22,9 C 20,9 C 18,2 C 75 % 69 % 1017 hPa 0,0 l/m 6,7 km/h (2 Bft) 0,80 h 0,00 h
10.07.2018 15:00 23,0 C 20,3 C 18,9 C 68 % 71 % 1016 hPa 0,0 l/m 6,9 km/h (2 Bft) 0,95 h 0,00 h
10.07.2018 16:00 23,0 C 21,2 C 19,8 C 59 % 60 % 1015 hPa 0,0 l/m 8,9 km/h (2 Bft) 0,65 h 0,00 h
10.07.2018 17:00 23,2 C 19,3 C 19,9 C 67 % 27 % 1016 hPa 0,0 l/m 9,6 km/h (2 Bft) 0,20 h 0,00 h
10.07.2018 18:00 23,2 C 18,3 C 19,5 C 70 % 51 % 1016 hPa 0,0 l/m 5,3 km/h (1 Bft) 0,80 h 0,00 h
10.07.2018 19:00 23,0 C 17,1 C 19,2 C 75 % 4 % 1017 hPa 1,0 l/m 3,7 km/h (1 Bft) 0,00 h 0,10 h
10.07.2018 20:00 23,0 C 22,8 C 18,7 C 78 % 5 % 1017 hPa 0,0 l/m 0,3 km/h (0 Bft) 0,50 h 0,00 h
10.07.2018 21:00 23,0 C 36,3 C 18,3 C 89 % 0 % 1018 hPa 0,0 l/m 0,2 km/h (0 Bft) 0,00 h 0,00 h
10.07.2018 22:00 23,1 C 31,2 C 18,0 C 88 % 0 % 1018 hPa 0,3 l/m 0,1 km/h (0 Bft) 0,00 h 0,05 h
10.07.2018 23:00 23,1 C 31,8 C 17,6 C 93 % 0 % 1018 hPa 0,0 l/m 0,4 km/h (0 Bft) 0,00 h 0,00 h
11.07.2018 00:00 23,1 C 22,8 C 17,4 C 99 % 0 % 1017 hPa 0,0 l/m 0,1 km/h (0 Bft) 0,00 h 0,00 h
11.07.2018 01:00 23,0 C 22,8 C 17,2 C 99 % 0 % 1017 hPa 0,0 l/m 0,0 km/h (0 Bft) 0,00 h 0,00 h
11.07.2018 02:00 23,0 C 22,8 C 17,0 C 99 % 0 % 1017 hPa 0,3 l/m 0,0 km/h (0 Bft) 0,00 h 0,05 h
11.07.2018 03:00 23,0 C 22,8 C 16,9 C 99 % 0 % 1016 hPa 0,0 l/m 0,2 km/h (0 Bft) 0,00 h 0,00 h
11.07.2018 04:00 23,0 C 22,8 C 16,8 C 99 % 0 % 1016 hPa 0,0 l/m 0,0 km/h (0 Bft) 0,00 h 0,00 h
11.07.2018 05:00 23,0 C 22,8 C 16,6 C 99 % 1 % 1016 hPa 0,0 l/m 0,2 km/h (0 Bft) 0,00 h 0,00 h
11.07.2018 06:00 23,0 C 22,8 C 16,5 C 99 % 7 % 1017 hPa 0,3 l/m 0,1 km/h (0 Bft) 0,00 h 0,05 h
11.07.2018 07:00 23,1 C 22,8 C 16,5 C 99 % 16 % 1017 hPa 0,0 l/m 0,1 km/h (0 Bft) 0,00 h 0,00 h
11.07.2018 08:00 23,1 C 22,8 C 16,7 C 99 % 27 % 1017 hPa 0,0 l/m 0,1 km/h (0 Bft) 0,00 h 0,00 h
11.07.2018 09:00 23,1 C 22,8 C 17,1 C 99 % 34 % 1017 hPa 0,0 l/m 1,9 km/h (1 Bft) 0,00 h 0,00 h
11.07.2018 10:00 23,2 C 22,8 C 17,4 C 99 % 23 % 1017 hPa 0,0 l/m 3,3 km/h (1 Bft) 0,00 h 0,00 h
11.07.2018 11:00 23,2 C 22,8 C 17,5 C 99 % 25 % 1017 hPa 1,0 l/m 2,6 km/h (1 Bft) 0,00 h 0,10 h
11.07.2018 12:00 23,2 C 22,8 C 17,6 C 99 % 57 % 1017 hPa 0,0 l/m 5,5 km/h (1 Bft) 0,50 h 0,00 h
11.07.2018 13:00 23,2 C 22,8 C 18,6 C 99 % 61 % 1017 hPa 0,0 l/m 7,1 km/h (2 Bft) 0,60 h 0,00 h
11.07.2018 14:00 23,2 C 22,8 C 19,0 C 99 % 37 % 1017 hPa 0,0 l/m 9,0 km/h (2 Bft) 0,15 h 0,00 h
11.07.2018 15:00 23,2 C 22,8 C 19,1 C 99 % 68 % 1017 hPa 0,0 l/m 7,1 km/h (2 Bft) 0,95 h 0,00 h
11.07.2018 16:00 23,4 C 22,8 C 19,7 C 99 % 72 % 1016 hPa 0,0 l/m 9,9 km/h (2 Bft) 0,85 h 0,00 h
11.07.2018 17:00 23,4 C 22,8 C 20,0 C 99 % 47 % 1017 hPa 0,3 l/m 9,4 km/h (2 Bft) 0,30 h 0,05 h
11.07.2018 18:00 23,4 C 22,8 C 19,9 C 99 % 40 % 1017 hPa 0,0 l/m 8,2 km/h (2 Bft) 0,25 h 0,00 h
11.07.2018 19:00 23,4 C 22,8 C 19,7 C 99 % 17 % 1017 hPa 0,0 l/m 6,7 km/h (2 Bft) 0,00 h 0,00 h
11.07.2018 20:00 23,2 C 22,8 C 19,4 C 99 % 5 % 1018 hPa 0,0 l/m 7,8 km/h (2 Bft) 0,00 h 0,00 h
11.07.2018 21:00 23,3 C 22,8 C 18,9 C 99 % 0 % 1018 hPa 0,0 l/m 1,0 km/h (0 Bft) 0,00 h 0,00 h
11.07.2018 22:00 23,2 C 22,8 C 18,3 C 99 % 0 % 1018 hPa 0,0 l/m 0,0 km/h (0 Bft) 0,00 h 0,00 h
11.07.2018 23:00 23,1 C 22,8 C 17,6 C 99 % 0 % 1019 hPa 0,0 l/m 0,0 km/h (0 Bft) 0,00 h 0,00 h
12.07.2018 00:00 21,3 C 22,8 C 17,0 C 99 % 0 % 1019 hPa 0,0 l/m 0,0 km/h (0 Bft) 0,00 h 0,00 h
12.07.2018 01:00 20,5 C 22,8 C 16,4 C 99 % 0 % 1019 hPa 0,0 l/m 0,0 km/h (0 Bft) 0,00 h 0,00 h
12.07.2018 02:00 19,8 C 22,8 C 15,8 C 99 % 0 % 1019 hPa 0,0 l/m 0,0 km/h (0 Bft) 0,00 h 0,00 h
12.07.2018 03:00 19,3 C 22,8 C 15,2 C 99 % 0 % 1019 hPa 0,0 l/m 0,0 km/h (0 Bft) 0,00 h 0,00 h
12.07.2018 04:00 18,8 C 22,8 C 14,7 C 99 % 0 % 1019 hPa 0,0 l/m 0,0 km/h (0 Bft) 0,00 h 0,00 h
12.07.2018 05:00 18,4 C 22,8 C 14,3 C 99 % 2 % 1019 hPa 0,0 l/m 0,0 km/h (0 Bft) 0,05 h 0,00 h
12.07.2018 06:00 18,3 C 22,8 C 14,1 C 99 % 7 % 1019 hPa 0,0 l/m 0,0 km/h (0 Bft) 0,00 h 0,00 h
12.07.2018 07:00 19,0 C 22,8 C 14,2 C 99 % 16 % 1019 hPa 0,0 l/m 0,1 km/h (0 Bft) 0,00 h 0,00 h
12.07.2018 08:00 20,0 C 22,8 C 14,5 C 99 % 26 % 1019 hPa 0,0 l/m 0,7 km/h (0 Bft) 0,00 h 0,00 h
12.07.2018 09:00 20,3 C 22,8 C 15,1 C 99 % 32 % 1019 hPa 0,0 l/m 0,3 km/h (0 Bft) 0,00 h 0,00 h
12.07.2018 10:00 20,6 C 22,8 C 15,6 C 99 % 41 % 1019 hPa 0,0 l/m 2,0 km/h (1 Bft) 0,25 h 0,00 h
12.07.2018 11:00 20,8 C 22,8 C 16,6 C 99 % 64 % 1019 hPa 0,0 l/m 2,7 km/h (1 Bft) 0,90 h 0,00 h
12.07.2018 12:00 20,9 C 22,8 C 18,0 C 99 % 68 % 1019 hPa 0,0 l/m 7,6 km/h (2 Bft) 1,00 h 0,00 h
12.07.2018 13:00 21,1 C 22,8 C 19,0 C 99 % 69 % 1019 hPa 0,0 l/m 9,1 km/h (2 Bft) 1,00 h 0,00 h
12.07.2018 14:00 21,2 C 22,8 C 19,9 C 99 % 68 % 1019 hPa 0,0 l/m 10,6 km/h (2 Bft) 0,80 h 0,00 h
12.07.2018 15:00 21,2 C 22,8 C 20,4 C 99 % 69 % 1019 hPa 0,0 l/m 9,3 km/h (2 Bft) 0,80 h 0,00 h
12.07.2018 16:00 21,3 C 22,8 C 21,0 C 99 % 73 % 1018 hPa 0,0 l/m 11,4 km/h (2 Bft) 0,85 h 0,00 h
12.07.2018 17:00 21,4 C 22,8 C 21,3 C 99 % 76 % 1018 hPa 0,0 l/m 11,1 km/h (2 Bft) 0,95 h 0,00 h
12.07.2018 18:00 21,6 C 22,8 C 21,4 C 99 % 70 % 1018 hPa 0,0 l/m 9,5 km/h (2 Bft) 0,95 h 0,00 h
12.07.2018 19:00 21,7 C 22,8 C 21,3 C 99 % 26 % 1019 hPa 0,0 l/m 6,5 km/h (2 Bft) 0,30 h 0,00 h
12.07.2018 20:00 21,6 C 22,8 C 21,0 C 99 % 7 % 1019 hPa 0,0 l/m 1,0 km/h (0 Bft) 0,20 h 0,00 h
12.07.2018 21:00 21,6 C 22,8 C 20,2 C 99 % 1 % 1019 hPa 0,0 l/m 0,2 km/h (0 Bft) 0,00 h 0,00 h
12.07.2018 22:00 21,6 C 22,8 C 19,4 C 99 % 0 % 1020 hPa 0,0 l/m 0,2 km/h (0 Bft) 0,00 h 0,00 h
12.07.2018 23:00 21,6 C 22,8 C 18,5 C 99 % 0 % 1020 hPa 0,0 l/m 0,1 km/h (0 Bft) 0,00 h 0,00 h
13.07.2018 00:00 21,2 C 22,8 C 17,7 C 99 % 0 % 1020 hPa 0,0 l/m 0,1 km/h (0 Bft) 0,00 h 0,00 h
13.07.2018 01:00 20,7 C 22,8 C 17,0 C 99 % 0 % 1020 hPa 0,0 l/m 0,1 km/h (0 Bft) 0,00 h 0,00 h
13.07.2018 02:00 20,5 C 22,8 C 16,5 C 99 % 0 % 1020 hPa 0,0 l/m 0,0 km/h (0 Bft) 0,00 h 0,00 h
13.07.2018 03:00 20,2 C 22,8 C 16,1 C 99 % 0 % 1021 hPa 0,0 l/m 0,0 km/h (0 Bft) 0,00 h 0,00 h
13.07.2018 04:00 19,9 C 22,8 C 15,6 C 99 % 0 % 1021 hPa 0,0 l/m 0,0 km/h (0 Bft) 0,00 h 0,00 h
13.07.2018 05:00 19,6 C 22,8 C 15,1 C 99 % 2 % 1021 hPa 0,0 l/m 0,0 km/h (0 Bft) 0,05 h 0,00 h
13.07.2018 06:00 19,5 C 22,8 C 14,8 C 99 % 10 % 1021 hPa 0,0 l/m 0,0 km/h (0 Bft) 0,00 h 0,00 h
13.07.2018 07:00 19,5 C 22,8 C 14,8 C 99 % 21 % 1021 hPa 0,0 l/m 0,7 km/h (0 Bft) 0,00 h 0,00 h
13.07.2018 08:00 19,9 C 22,8 C 15,4 C 99 % 36 % 1022 hPa 0,0 l/m 2,3 km/h (1 Bft) 0,00 h 0,00 h
13.07.2018 09:00 20,3 C 22,8 C 16,4 C 99 % 48 % 1022 hPa 0,0 l/m 2,6 km/h (1 Bft) 0,05 h 0,00 h
13.07.2018 10:00 20,6 C 22,8 C 17,9 C 99 % 61 % 1022 hPa 0,0 l/m 4,2 km/h (1 Bft) 1,00 h 0,00 h
13.07.2018 11:00 20,9 C 22,8 C 19,5 C 99 % 72 % 1021 hPa 0,0 l/m 4,5 km/h (1 Bft) 1,00 h 0,00 h
13.07.2018 12:00 21,1 C 22,8 C 20,6 C 99 % 56 % 1021 hPa 0,0 l/m 4,1 km/h (1 Bft) 0,40 h 0,00 h
13.07.2018 13:00 21,2 C 22,8 C 21,4 C 99 % 61 % 1021 hPa 0,0 l/m 6,0 km/h (2 Bft) 0,60 h 0,00 h
13.07.2018 14:00 21,1 C 22,8 C 22,1 C 99 % 56 % 1020 hPa 0,0 l/m 7,6 km/h (2 Bft) 0,50 h 0,00 h
13.07.2018 15:00 21,1 C 22,8 C 22,7 C 99 % 69 % 1020 hPa 0,0 l/m 7,2 km/h (2 Bft) 0,90 h 0,00 h
13.07.2018 16:00 21,2 C 22,8 C 23,2 C 99 % 69 % 1020 hPa 0,0 l/m 6,5 km/h (2 Bft) 0,75 h 0,00 h
13.07.2018 17:00 21,4 C 22,8 C 23,4 C 99 % 69 % 1020 hPa 0,0 l/m 4,7 km/h (1 Bft) 0,85 h 0,00 h
13.07.2018 18:00 21,5 C 22,8 C 23,6 C 99 % 53 % 1020 hPa 0,0 l/m 5,6 km/h (1 Bft) 0,45 h 0,00 h
13.07.2018 19:00 21,5 C 22,8 C 23,6 C 99 % 29 % 1019 hPa 0,0 l/m 2,7 km/h (1 Bft) 0,30 h 0,00 h
13.07.2018 20:00 21,6 C 22,8 C 23,1 C 99 % 8 % 1020 hPa 0,0 l/m 0,1 km/h (0 Bft) 0,50 h 0,00 h
13.07.2018 21:00 21,6 C 22,8 C 22,4 C 99 % 1 % 1020 hPa 0,0 l/m 0,0 km/h (0 Bft) 0,00 h 0,00 h
13.07.2018 22:00 21,5 C 22,8 C 21,4 C 99 % 0 % 1021 hPa 0,0 l/m 0,6 km/h (0 Bft) 0,00 h 0,00 h
13.07.2018 23:00 21,2 C 22,8 C 20,6 C 99 % 0 % 1021 hPa 0,0 l/m 0,9 km/h (0 Bft) 0,00 h 0,00 h
14.07.2018 00:00 21,0 C 22,8 C 19,8 C 99 % 0 % 1021 hPa 0,0 l/m 0,0 km/h (0 Bft) 0,00 h 0,00 h
14.07.2018 01:00 20,7 C 22,8 C 19,0 C 99 % 0 % 1021 hPa 0,0 l/m 0,6 km/h (0 Bft) 0,00 h 0,00 h
14.07.2018 02:00 20,5 C 22,8 C 18,3 C 99 % 0 % 1021 hPa 0,0 l/m 0,0 km/h (0 Bft) 0,00 h 0,00 h
14.07.2018 03:00 20,3 C 22,8 C 17,7 C 99 % 0 % 1021 hPa 0,0 l/m 0,0 km/h (0 Bft) 0,00 h 0,00 h
14.07.2018 04:00 20,0 C 22,8 C 17,2 C 99 % 0 % 1021 hPa 0,0 l/m 0,0 km/h (0 Bft) 0,00 h 0,00 h
14.07.2018 05:00 19,8 C 22,8 C 16,7 C 99 % 3 % 1021 hPa 0,0 l/m 0,0 km/h (0 Bft) 0,10 h 0,00 h
14.07.2018 06:00 19,7 C 22,8 C 16,4 C 99 % 12 % 1021 hPa 0,0 l/m 0,0 km/h (0 Bft) 0,00 h 0,00 h
14.07.2018 07:00 19,9 C 22,8 C 17,1 C 99 % 32 % 1021 hPa 0,0 l/m 0,0 km/h (0 Bft) 0,00 h 0,00 h
14.07.2018 08:00 20,1 C 22,8 C 17,9 C 99 % 51 % 1021 hPa 0,0 l/m 0,0 km/h (0 Bft) 0,40 h 0,00 h
14.07.2018 09:00 20,5 C 22,8 C 18,9 C 99 % 48 % 1021 hPa 0,0 l/m 0,0 km/h (0 Bft) 0,10 h 0,00 h
14.07.2018 10:00 20,7 C 22,8 C 20,1 C 99 % 63 % 1021 hPa 0,0 l/m 3,8 km/h (1 Bft) 1,00 h 0,00 h
14.07.2018 11:00 20,8 C 22,8 C 21,5 C 99 % 73 % 1021 hPa 0,0 l/m 5,2 km/h (1 Bft) 1,00 h 0,00 h
14.07.2018 12:00 21,1 C 22,8 C 22,7 C 99 % 54 % 1020 hPa 0,0 l/m 4,5 km/h (1 Bft) 0,45 h 0,00 h
14.07.2018 13:00 21,3 C 22,8 C 23,1 C 99 % 55 % 1020 hPa 0,0 l/m 4,9 km/h (1 Bft) 0,45 h 0,00 h
14.07.2018 14:00 21,2 C 22,8 C 24,1 C 99 % 78 % 1020 hPa 0,0 l/m 6,8 km/h (2 Bft) 1,00 h 0,00 h
14.07.2018 15:00 21,4 C 22,8 C 24,8 C 99 % 49 % 1019 hPa 0,0 l/m 5,5 km/h (1 Bft) 0,50 h 0,40 h
14.07.2018 16:00 21,4 C 22,8 C 23,8 C 99 % 36 % 1020 hPa 0,3 l/m 9,0 km/h (2 Bft) 0,25 h 0,10 h
14.07.2018 17:00 21,4 C 22,8 C 23,3 C 99 % 73 % 1019 hPa 0,0 l/m 3,2 km/h (1 Bft) 0,90 h 0,00 h
14.07.2018 18:00 21,5 C 22,8 C 23,1 C 99 % 71 % 1019 hPa 0,0 l/m 3,3 km/h (1 Bft) 1,00 h 0,80 h
14.07.2018 19:00 21,5 C 22,8 C 22,9 C 99 % 24 % 1018 hPa 0,0 l/m 2,2 km/h (1 Bft) 0,20 h 0,50 h
14.07.2018 20:00 21,5 C 22,8 C 22,6 C 99 % 6 % 1018 hPa 0,0 l/m 0,2 km/h (0 Bft) 0,20 h 0,65 h
14.07.2018 21:00 21,5 C 22,8 C 21,9 C 99 % 0 % 1019 hPa 0,0 l/m 0,4 km/h (0 Bft) 0,00 h 0,35 h
14.07.2018 22:00 21,6 C 22,8 C 21,0 C 99 % 0 % 1019 hPa 0,0 l/m 0,2 km/h (0 Bft) 0,00 h 0,00 h
14.07.2018 23:00 21,6 C 22,8 C 20,2 C 99 % 0 % 1019 hPa 0,0 l/m 0,6 km/h (0 Bft) 0,00 h 0,85 h
15.07.2018 00:00 21,6 C 22,8 C 19,5 C 99 % 0 % 1019 hPa 0,0 l/m 0,0 km/h (0 Bft) 0,00 h 0,55 h
15.07.2018 01:00 21,6 C 22,8 C 18,8 C 99 % 0 % 1019 hPa 0,0 l/m 0,0 km/h (0 Bft) 0,00 h 0,55 h
15.07.2018 02:00 21,5 C 22,8 C 18,1 C 99 % 0 % 1019 hPa 0,0 l/m 0,0 km/h (0 Bft) 0,00 h 1,00 h
15.07.2018 03:00 21,5 C 22,8 C 17,5 C 99 % 0 % 1019 hPa 0,0 l/m 0,1 km/h (0 Bft) 0,00 h 1,00 h
15.07.2018 04:00 21,5 C 22,8 C 17,0 C 99 % 0 % 1019 hPa 0,0 l/m 0,1 km/h (0 Bft) 0,00 h 0,70 h
15.07.2018 05:00 21,5 C 22,8 C 16,6 C 99 % 2 % 1019 hPa 0,0 l/m 0,0 km/h (0 Bft) 0,10 h 0,00 h
15.07.2018 06:00 21,4 C 22,8 C 16,4 C 99 % 17 % 1019 hPa 0,0 l/m 0,7 km/h (0 Bft) 0,25 h 0,20 h
15.07.2018 07:00 21,5 C 22,8 C 17,1 C 99 % 27 % 1019 hPa 0,0 l/m 1,3 km/h (1 Bft) 0,00 h 0,70 h
15.07.2018 08:00 21,5 C 22,8 C 18,0 C 99 % 50 % 1019 hPa 0,0 l/m 2,3 km/h (1 Bft) 0,45 h 0,85 h
15.07.2018 09:00 21,6 C 22,8 C 19,1 C 99 % 52 % 1019 hPa 0,0 l/m 4,1 km/h (1 Bft) 0,60 h 0,05 h
15.07.2018 10:00 21,7 C 22,8 C 20,2 C 99 % 54 % 1019 hPa 0,0 l/m 3,5 km/h (1 Bft) 0,30 h 0,00 h
15.07.2018 11:00 21,8 C 22,8 C 21,4 C 99 % 73 % 1019 hPa 0,0 l/m 3,6 km/h (1 Bft) 1,00 h 0,60 h
15.07.2018 12:00 21,9 C 25,0 C 22,5 C 67 % 77 % 1018 hPa 0,0 l/m 4,0 km/h (1 Bft) 1,00 h 0,40 h
15.07.2018 13:00 22,0 C 26,6 C 23,6 C 43 % 78 % 1017 hPa 0,0 l/m 5,9 km/h (2 Bft) 1,00 h 0,00 h
15.07.2018 14:00 22,0 C 27,7 C 24,5 C 40 % 58 % 1017 hPa 0,0 l/m 6,1 km/h (2 Bft) 0,55 h 0,00 h
15.07.2018 15:00 22,0 C 27,4 C 25,0 C 41 % 63 % 1016 hPa 0,0 l/m 4,7 km/h (1 Bft) 0,70 h 0,00 h
15.07.2018 16:00 22,1 C 26,6 C 25,1 C 41 % 60 % 1016 hPa 0,0 l/m 6,8 km/h (2 Bft) 0,55 h 0,00 h
15.07.2018 17:00 22,2 C 23,5 C 24,7 C 51 % 56 % 1017 hPa 0,0 l/m 5,6 km/h (1 Bft) 0,80 h 0,00 h
15.07.2018 18:00 22,3 C 21,2 C 23,6 C 60 % 11 % 1017 hPa 0,0 l/m 9,2 km/h (2 Bft) 0,00 h 0,00 h
15.07.2018 19:00 22,2 C 19,7 C 22,3 C 71 % 3 % 1018 hPa 0,0 l/m 8,3 km/h (2 Bft) 0,00 h 0,00 h
15.07.2018 20:00 22,2 C 18,2 C 21,2 C 76 % 3 % 1017 hPa 0,0 l/m 5,9 km/h (2 Bft) 0,05 h 0,00 h
15.07.2018 21:00 22,2 C 17,8 C 20,6 C 77 % 0 % 1017 hPa 0,0 l/m 2,7 km/h (1 Bft) 0,00 h 0,00 h
15.07.2018 22:00 22,2 C 17,2 C 19,9 C 78 % 0 % 1018 hPa 0,0 l/m 1,0 km/h (0 Bft) 0,00 h 0,00 h
15.07.2018 23:00 22,2 C 16,5 C 19,4 C 79 % 0 % 1018 hPa 0,0 l/m 0,0 km/h (0 Bft) 0,00 h 0,00 h
Min-Datum _ 12.07.18 10.07.18 12.07.18 15.07.18 - 10.07.18 - 09.07.18 - -
_ Min-Zeit 06:06 22:15 06:51 16:41 - 16:06 - 00:00 - -
Minimum _ 18,2 C -18,2 C 14,0 C 36 % - 1015 hPa - 0,0 km/h (0 Bft) - -
Max-Datum _ 09.07.18 10.07.18 15.07.18 10.07.18 14.07.18 09.07.18 10.07.18 10.07.18 09.07.18 10.07.18
_ Max-Zeit 00:00 21:33 16:35 21:42 16:41 00:00 11:09 17:30 05:30 11:00
Maximum _ 23,9 C 78,2 C 25,3 C 99 % 81 % 1022 hPa 4,1 l/m 24,6 km/h
N (4 Bft)
0,05 h 0,05 h
Durchschnitt _ 21,9 C 22,0 C 19,5 C 88 % #50:09 h 1019 hPa #7,9 l/m 2,7 km/h (1 Bft) #50:09 h #11:12 h